Time;durP1;ratioP1;P1;durP2;ratioP2;P2;SDS_P1;SDS_P2;PMS_P1;PMS_P2;Temp;Humidity;BMP_temperature;BMP_pressure;BME280_temperature;BME280_humidity;BME280_pressure;Samples;Min_cycle;Max_cycle;Signal;HPM_P1;HPM_P2
2021/05/08 00:00:25;;;;;;;429.27;239.75;;;;;;;;;;5043303;28;20498;-81
2021/05/08 00:02:51;;;;;;;434.13;245.32;;;;;;;;;;5041509;28;20440;-81
2021/05/08 00:05:17;;;;;;;430.92;246.00;;;;;;;;;;5025867;28;20120;-81
2021/05/08 00:07:44;;;;;;;429.33;244.48;;;;;;;;;;5026257;28;20507;-81
2021/05/08 00:10:11;;;;;;;431.20;238.25;;;;;;;;;;5024743;28;20033;-81
2021/05/08 00:12:37;;;;;;;432.42;233.90;;;;;;;;;;5042445;28;20061;-81
2021/05/08 00:15:04;;;;;;;433.55;247.38;;;;;;;;;;5024819;28;20609;-81
2021/05/08 00:17:30;;;;;;;433.38;243.48;;;;;;;;;;5024582;28;20374;-81
2021/05/08 00:19:57;;;;;;;434.25;244.63;;;;;;;;;;5046254;28;20589;-81
2021/05/08 00:22:23;;;;;;;430.50;239.00;;;;;;;;;;5025948;28;20546;-81
2021/05/08 00:24:51;;;;;;;446.42;249.85;;;;;;;;;;5025753;28;20029;-81
2021/05/08 00:27:17;;;;;;;445.50;244.90;;;;;;;;;;5024526;28;20061;-81
2021/05/08 00:29:43;;;;;;;445.27;244.50;;;;;;;;;;5024451;28;20061;-81
2021/05/08 00:32:09;;;;;;;468.08;258.55;;;;;;;;;;5026360;28;20503;-81
2021/05/08 00:34:35;;;;;;;476.45;249.82;;;;;;;;;;5042397;28;20064;-81
2021/05/08 00:37:01;;;;;;;455.77;250.68;;;;;;;;;;5026754;28;20067;-81
2021/05/08 00:39:27;;;;;;;459.50;247.55;;;;;;;;;;5025730;28;20032;-81
2021/05/08 00:41:53;;;;;;;462.08;248.88;;;;;;;;;;5026091;28;20033;-81
2021/05/08 00:44:19;;;;;;;466.60;254.05;;;;;;;;;;5025943;28;20496;-81
2021/05/08 00:46:45;;;;;;;456.00;255.63;;;;;;;;;;5015805;28;20488;-81
2021/05/08 00:49:11;;;;;;;450.10;245.40;;;;;;;;;;5026358;28;20560;-81
2021/05/08 00:51:37;;;;;;;472.13;246.23;;;;;;;;;;5021787;28;20033;-81
2021/05/08 00:54:03;;;;;;;455.75;241.07;;;;;;;;;;5022244;28;20043;-81
2021/05/08 00:56:29;;;;;;;447.08;236.93;;;;;;;;;;5022365;28;20025;-81
2021/05/08 00:58:55;;;;;;;432.33;235.90;;;;;;;;;;5024032;28;20032;-81
2021/05/08 01:01:21;;;;;;;440.38;237.15;;;;;;;;;;5025270;28;20036;-81
2021/05/08 01:03:48;;;;;;;461.92;238.68;;;;;;;;;;5017917;28;20029;-81
2021/05/08 01:06:14;;;;;;;447.30;240.20;;;;;;;;;;5037828;28;20035;-81
2021/05/08 01:08:40;;;;;;;454.75;244.50;;;;;;;;;;5017900;28;20119;-81
2021/05/08 01:11:06;;;;;;;467.90;249.70;;;;;;;;;;5022876;28;20036;-81
2021/05/08 01:13:32;;;;;;;450.05;250.88;;;;;;;;;;5019209;28;20040;-81
2021/05/08 01:15:59;;;;;;;442.08;241.43;;;;;;;;;;5039257;28;20047;-81
2021/05/08 01:18:25;;;;;;;449.30;248.00;;;;;;;;;;5008079;28;20091;-81
2021/05/08 01:20:51;;;;;;;450.90;237.43;;;;;;;;;;5025307;28;20039;-81
2021/05/08 01:23:17;;;;;;;458.67;235.70;;;;;;;;;;5026482;28;20047;-82
2021/05/08 01:25:43;;;;;;;452.00;234.27;;;;;;;;;;5022450;28;20037;-81
2021/05/08 01:28:09;;;;;;;467.05;237.48;;;;;;;;;;5019756;28;20036;-81
2021/05/08 01:30:37;;;;;;;531.38;253.80;;;;;;;;;;5024884;28;20049;-81
2021/05/08 01:33:06;;;;;;;573.92;264.55;;;;;;;;;;5023644;28;20068;-81
2021/05/08 01:35:33;;;;;;;640.83;296.00;;;;;;;;;;5042881;28;20031;-81
2021/05/08 01:37:59;;;;;;;641.78;291.38;;;;;;;;;;5024355;28;20064;-81
2021/05/08 01:40:36;;;;;;;493.40;227.13;;;;;;;;;;5025912;28;20048;-81
2021/05/08 01:43:02;;;;;;;472.25;236.15;;;;;;;;;;5023870;28;20439;-81
2021/05/08 01:45:28;;;;;;;580.10;262.70;;;;;;;;;;5020419;28;20032;-81
2021/05/08 01:47:55;;;;;;;539.03;247.45;;;;;;;;;;5040030;28;20057;-81
2021/05/08 01:50:25;;;;;;;521.13;246.30;;;;;;;;;;5023884;28;20281;-81
2021/05/08 01:52:51;;;;;;;546.25;253.13;;;;;;;;;;5018459;28;20033;-81
2021/05/08 01:55:19;;;;;;;553.45;252.65;;;;;;;;;;5029426;28;20051;-81
2021/05/08 01:57:49;;;;;;;524.47;251.68;;;;;;;;;;5044987;28;20036;-81
2021/05/08 02:00:18;;;;;;;521.40;247.75;;;;;;;;;;5029874;28;20025;-80
2021/05/08 02:02:45;;;;;;;580.55;262.98;;;;;;;;;;5028307;28;20045;-80
2021/05/08 02:05:11;;;;;;;509.23;256.80;;;;;;;;;;5046666;28;20499;-80
2021/05/08 02:07:37;;;;;;;500.08;252.68;;;;;;;;;;5029383;28;20036;-80
2021/05/08 02:10:05;;;;;;;474.63;234.88;;;;;;;;;;5028348;28;20467;-81
2021/05/08 02:12:32;;;;;;;562.80;254.40;;;;;;;;;;5028179;28;20098;-80
2021/05/08 02:14:58;;;;;;;521.75;249.13;;;;;;;;;;5026188;28;20028;-79
2021/05/08 02:17:24;;;;;;;516.78;243.35;;;;;;;;;;5023748;28;20397;-80
2021/05/08 02:19:51;;;;;;;474.05;229.95;;;;;;;;;;5025536;28;20028;-80
2021/05/08 02:22:17;;;;;;;452.83;228.43;;;;;;;;;;5028633;28;20040;-80
2021/05/08 02:24:44;;;;;;;476.88;235.68;;;;;;;;;;5028723;28;20268;-80
2021/05/08 02:27:10;;;;;;;472.50;239.93;;;;;;;;;;5043733;28;20745;-80
2021/05/08 02:29:36;;;;;;;583.20;261.98;;;;;;;;;;5027506;28;20044;-80
2021/05/08 02:32:02;;;;;;;447.38;236.00;;;;;;;;;;5027923;28;20052;-80
2021/05/08 02:34:28;;;;;;;439.85;232.55;;;;;;;;;;5027818;28;20128;-80
2021/05/08 02:36:54;;;;;;;448.17;243.05;;;;;;;;;;5028946;28;20099;-80
2021/05/08 02:39:20;;;;;;;449.95;247.30;;;;;;;;;;5044948;28;20041;-80
2021/05/08 02:41:46;;;;;;;472.10;247.40;;;;;;;;;;5028380;28;20061;-80
2021/05/08 02:44:12;;;;;;;637.70;288.85;;;;;;;;;;5045515;28;20029;-80
2021/05/08 02:46:38;;;;;;;460.85;231.85;;;;;;;;;;5028517;28;20021;-80
2021/05/08 02:49:04;;;;;;;455.20;236.95;;;;;;;;;;5026539;28;21470;-80
2021/05/08 02:51:30;;;;;;;454.27;233.55;;;;;;;;;;5028193;28;20036;-81
2021/05/08 02:53:56;;;;;;;580.65;273.52;;;;;;;;;;5044934;28;20431;-80
2021/05/08 02:56:21;;;;;;;458.80;239.73;;;;;;;;;;5028104;28;20413;-81
2021/05/08 02:58:47;;;;;;;613.90;283.02;;;;;;;;;;5036584;28;20499;-81
2021/05/08 03:01:14;;;;;;;452.92;239.25;;;;;;;;;;5028625;28;20496;-80
2021/05/08 03:03:40;;;;;;;437.92;232.50;;;;;;;;;;5026966;28;20136;-80
2021/05/08 03:06:06;;;;;;;467.98;241.18;;;;;;;;;;5028132;28;20555;-80
2021/05/08 03:08:32;;;;;;;474.40;239.40;;;;;;;;;;5025322;28;20111;-80
2021/05/08 03:10:58;;;;;;;468.98;235.57;;;;;;;;;;5045205;28;20135;-80
2021/05/08 03:13:24;;;;;;;462.80;233.77;;;;;;;;;;5027383;28;20036;-80
2021/05/08 03:15:50;;;;;;;457.35;228.30;;;;;;;;;;5028236;28;20094;-81
2021/05/08 03:18:16;;;;;;;459.98;234.98;;;;;;;;;;5027154;28;20111;-80
2021/05/08 03:20:42;;;;;;;466.20;240.60;;;;;;;;;;5028184;28;20047;-80
2021/05/08 03:23:08;;;;;;;449.70;232.30;;;;;;;;;;5026696;28;20355;-80
2021/05/08 03:25:34;;;;;;;454.65;234.48;;;;;;;;;;5043378;28;20104;-80
2021/05/08 03:28:00;;;;;;;458.83;232.60;;;;;;;;;;5026362;28;20111;-80
2021/05/08 03:30:26;;;;;;;456.35;227.77;;;;;;;;;;5043594;28;20147;-80
2021/05/08 03:32:52;;;;;;;454.52;235.57;;;;;;;;;;5027647;28;20037;-80
2021/05/08 03:35:18;;;;;;;453.98;234.45;;;;;;;;;;5027082;28;20473;-80
2021/05/08 03:37:44;;;;;;;460.05;237.57;;;;;;;;;;5027993;28;20051;-81
2021/05/08 03:40:10;;;;;;;448.83;234.75;;;;;;;;;;5043448;28;20129;-80
2021/05/08 03:42:36;;;;;;;451.50;233.18;;;;;;;;;;5024967;28;20035;-80
2021/05/08 03:45:03;;;;;;;464.55;234.07;;;;;;;;;;5025093;28;20151;-80
2021/05/08 03:47:29;;;;;;;459.90;235.23;;;;;;;;;;5025343;28;20489;-80
2021/05/08 03:49:55;;;;;;;449.05;230.38;;;;;;;;;;5023298;28;20120;-81
2021/05/08 03:52:21;;;;;;;478.88;238.60;;;;;;;;;;5041755;28;20030;-80
2021/05/08 03:54:47;;;;;;;458.50;235.88;;;;;;;;;;5024791;28;20033;-80
2021/05/08 03:57:13;;;;;;;451.58;233.00;;;;;;;;;;5023659;28;20226;-80
2021/05/08 03:59:39;;;;;;;450.17;230.75;;;;;;;;;;5022119;28;20025;-80
2021/05/08 04:02:05;;;;;;;437.20;228.55;;;;;;;;;;5025866;28;20467;-80
2021/05/08 04:04:31;;;;;;;439.60;231.77;;;;;;;;;;5042086;28;20040;-81
2021/05/08 04:06:57;;;;;;;435.05;237.38;;;;;;;;;;5022820;28;20030;-80
2021/05/08 04:09:23;;;;;;;434.42;240.32;;;;;;;;;;5041910;28;20127;-80
2021/05/08 04:11:49;;;;;;;431.38;235.68;;;;;;;;;;5020346;28;20037;-80
2021/05/08 04:14:15;;;;;;;425.27;227.60;;;;;;;;;;5023064;28;20037;-80
2021/05/08 04:16:41;;;;;;;440.58;241.15;;;;;;;;;;5024103;28;20123;-80
2021/05/08 04:19:07;;;;;;;433.73;236.93;;;;;;;;;;5022862;28;20033;-80
2021/05/08 04:21:33;;;;;;;436.92;234.65;;;;;;;;;;5022799;28;20345;-80
2021/05/08 04:23:59;;;;;;;442.75;243.18;;;;;;;;;;5040741;28;20678;-81
2021/05/08 04:26:25;;;;;;;434.38;228.52;;;;;;;;;;5024799;28;20025;-81
2021/05/08 04:28:51;;;;;;;442.92;240.93;;;;;;;;;;5035295;28;20025;-80
2021/05/08 04:31:18;;;;;;;440.17;235.25;;;;;;;;;;5019887;28;20032;-80
2021/05/08 04:33:44;;;;;;;439.80;239.35;;;;;;;;;;5019682;28;20029;-80
2021/05/08 04:36:10;;;;;;;437.25;229.63;;;;;;;;;;5019097;28;20554;-80
2021/05/08 04:38:38;;;;;;;447.45;238.00;;;;;;;;;;5017616;28;20057;-80
2021/05/08 04:41:04;;;;;;;446.92;227.23;;;;;;;;;;5015933;28;20029;-80
2021/05/08 04:43:31;;;;;;;443.85;236.10;;;;;;;;;;5027247;28;20033;-80
2021/05/08 04:45:57;;;;;;;435.88;237.52;;;;;;;;;;5023868;28;20021;-80
2021/05/08 04:48:23;;;;;;;435.00;243.00;;;;;;;;;;5040862;28;20087;-80
2021/05/08 04:50:50;;;;;;;440.25;245.32;;;;;;;;;;5027511;28;20037;-79
2021/05/08 04:53:16;;;;;;;434.60;236.48;;;;;;;;;;5033260;28;20047;-80
2021/05/08 04:55:42;;;;;;;435.23;239.75;;;;;;;;;;5030797;28;20688;-79
2021/05/08 04:58:08;;;;;;;433.77;244.25;;;;;;;;;;5032252;28;20135;-80
2021/05/08 05:00:53;;;;;;;436.92;236.32;;;;;;;;;;5033144;28;20036;-80
2021/05/08 05:03:19;;;;;;;435.63;241.23;;;;;;;;;;5028810;28;20029;-80
2021/05/08 05:05:45;;;;;;;436.38;241.55;;;;;;;;;;5034046;28;20346;-80
2021/05/08 05:08:17;;;;;;;445.80;254.82;;;;;;;;;;5033386;28;20075;-80
2021/05/08 05:10:43;;;;;;;448.77;250.57;;;;;;;;;;5033627;28;20535;-80
2021/05/08 05:13:09;;;;;;;438.08;248.45;;;;;;;;;;5030426;28;20029;-81
2021/05/08 05:15:35;;;;;;;437.63;241.50;;;;;;;;;;5033062;28;20116;-80
2021/05/08 05:18:01;;;;;;;446.52;252.88;;;;;;;;;;5051369;28;20036;-80
2021/05/08 05:20:27;;;;;;;448.15;251.70;;;;;;;;;;5030016;28;20053;-81
2021/05/08 05:22:53;;;;;;;450.10;250.77;;;;;;;;;;5033076;28;20032;-81
2021/05/08 05:25:19;;;;;;;453.00;250.43;;;;;;;;;;5028787;28;20107;-80
2021/05/08 05:27:45;;;;;;;456.60;252.55;;;;;;;;;;5051968;28;20115;-82
2021/05/08 05:30:11;;;;;;;458.38;258.13;;;;;;;;;;5035073;28;20394;-81
2021/05/08 05:32:37;;;;;;;461.60;269.10;;;;;;;;;;5036101;28;20107;-83
2021/05/08 05:35:03;;;;;;;457.95;254.27;;;;;;;;;;5037959;28;20448;-81
2021/05/08 05:37:29;;;;;;;454.38;261.38;;;;;;;;;;5037870;28;20028;-82
2021/05/08 05:39:55;;;;;;;454.67;262.23;;;;;;;;;;5037929;28;20388;-81
2021/05/08 05:42:21;;;;;;;449.20;257.45;;;;;;;;;;5037930;28;20025;-80
2021/05/08 05:44:47;;;;;;;450.70;257.98;;;;;;;;;;5054859;28;20354;-81
2021/05/08 05:47:22;;;;;;;454.75;258.85;;;;;;;;;;5030548;28;20029;-80
2021/05/08 05:49:49;;;;;;;466.45;264.60;;;;;;;;;;5055579;28;20032;-82
2021/05/08 05:52:15;;;;;;;458.83;264.52;;;;;;;;;;5037510;28;20025;-81
2021/05/08 05:54:45;;;;;;;460.20;268.80;;;;;;;;;;5038889;28;20564;-81
2021/05/08 05:57:11;;;;;;;499.93;277.03;;;;;;;;;;5035997;28;20029;-81
2021/05/08 05:59:37;;;;;;;473.23;270.83;;;;;;;;;;5037726;28;20048;-80
2021/05/08 06:02:04;;;;;;;519.97;286.00;;;;;;;;;;5034128;28;20376;-81
2021/05/08 06:04:30;;;;;;;549.35;295.20;;;;;;;;;;5050354;28;20021;-79
2021/05/08 06:06:56;;;;;;;502.40;285.42;;;;;;;;;;5033335;28;20481;-81
2021/05/08 06:09:25;;;;;;;517.75;296.52;;;;;;;;;;5054866;28;20104;-80
2021/05/08 06:11:51;;;;;;;504.55;286.98;;;;;;;;;;5034031;28;20033;-79
2021/05/08 06:14:17;;;;;;;523.47;290.92;;;;;;;;;;5032174;28;20029;-79
2021/05/08 06:16:43;;;;;;;508.65;301.67;;;;;;;;;;5036470;28;20025;-79
2021/05/08 06:19:09;;;;;;;543.63;310.20;;;;;;;;;;5036759;28;20465;-85
2021/05/08 06:21:35;;;;;;;519.17;291.83;;;;;;;;;;5031481;28;20070;-82
2021/05/08 06:24:01;;;;;;;525.78;290.95;;;;;;;;;;5054658;28;20034;-79
2021/05/08 06:26:27;;;;;;;555.13;321.88;;;;;;;;;;5036812;28;20120;-81
2021/05/08 06:28:53;;;;;;;505.23;286.50;;;;;;;;;;5031214;28;20044;-79
2021/05/08 06:31:19;;;;;;;508.73;305.92;;;;;;;;;;5036192;28;20029;-81
2021/05/08 06:33:46;;;;;;;502.70;288.90;;;;;;;;;;5036924;28;20035;-79
2021/05/08 06:36:12;;;;;;;500.15;294.70;;;;;;;;;;5036424;28;20433;-79
2021/05/08 06:38:38;;;;;;;499.08;292.55;;;;;;;;;;5035372;28;20121;-80
2021/05/08 06:41:04;;;;;;;500.13;298.95;;;;;;;;;;5035469;28;20033;-78
2021/05/08 06:43:33;;;;;;;505.77;303.85;;;;;;;;;;5028021;28;20024;-78
2021/05/08 06:45:59;;;;;;;512.60;297.15;;;;;;;;;;5018344;28;20080;-81
2021/05/08 06:48:25;;;;;;;495.17;302.58;;;;;;;;;;5032780;28;20489;-83
2021/05/08 06:50:51;;;;;;;497.42;309.00;;;;;;;;;;5036831;28;20120;-80
2021/05/08 06:53:17;;;;;;;498.92;304.17;;;;;;;;;;5054303;28;20025;-76
2021/05/08 06:55:43;;;;;;;501.17;292.27;;;;;;;;;;5038466;28;20029;-79
2021/05/08 06:58:09;;;;;;;497.30;297.85;;;;;;;;;;5040350;28;20120;-83
2021/05/08 07:00:35;;;;;;;501.30;306.67;;;;;;;;;;5037050;28;20021;-79
2021/05/08 07:03:01;;;;;;;488.73;297.88;;;;;;;;;;5042983;28;20056;-79
2021/05/08 07:05:29;;;;;;;493.17;309.10;;;;;;;;;;5042011;28;20060;-81
2021/05/08 07:08:02;;;;;;;495.90;300.83;;;;;;;;;;5053570;28;20029;-82
2021/05/08 07:10:28;;;;;;;493.27;295.92;;;;;;;;;;5053180;28;20025;-81
2021/05/08 07:12:54;;;;;;;474.50;289.83;;;;;;;;;;5035885;28;20078;-80
2021/05/08 07:15:20;;;;;;;491.17;307.05;;;;;;;;;;5030230;28;20454;-78
2021/05/08 07:17:59;;;;;;;496.00;306.80;;;;;;;;;;5035365;28;20052;-80
2021/05/08 07:20:25;;;;;;;491.45;305.95;;;;;;;;;;5053907;28;20796;-79
2021/05/08 07:22:51;;;;;;;513.05;319.30;;;;;;;;;;5036020;28;20032;-81
2021/05/08 07:25:17;;;;;;;500.30;312.45;;;;;;;;;;5034189;28;20017;-78
2021/05/08 07:27:43;;;;;;;501.50;312.10;;;;;;;;;;5033575;28;20388;-82
2021/05/08 07:30:09;;;;;;;490.92;309.65;;;;;;;;;;5030500;28;20075;-86
2021/05/08 07:32:35;;;;;;;486.55;309.80;;;;;;;;;;5033061;28;20465;-79
2021/05/08 07:35:01;;;;;;;488.95;313.85;;;;;;;;;;5033328;28;20071;-81
2021/05/08 07:37:27;;;;;;;486.90;311.33;;;;;;;;;;5034976;28;20025;-80
2021/05/08 07:39:53;;;;;;;498.08;323.70;;;;;;;;;;5032701;28;20119;-86
2021/05/08 07:42:19;;;;;;;489.08;318.90;;;;;;;;;;5035421;28;20108;-84
2021/05/08 07:44:45;;;;;;;505.05;329.77;;;;;;;;;;5028862;28;20032;-82
2021/05/08 07:47:13;;;;;;;495.95;321.77;;;;;;;;;;5013818;28;20322;-83
2021/05/08 07:49:39;;;;;;;500.27;319.00;;;;;;;;;;5025794;28;20473;-80
2021/05/08 07:52:05;;;;;;;487.13;319.48;;;;;;;;;;5046709;28;20047;-80
2021/05/08 07:54:32;;;;;;;510.27;330.83;;;;;;;;;;5026226;28;20131;-80
2021/05/08 07:56:58;;;;;;;498.73;326.42;;;;;;;;;;5029430;28;20116;-81
2021/05/08 07:59:24;;;;;;;502.85;332.38;;;;;;;;;;5023818;28;20039;-80
2021/05/08 08:01:50;;;;;;;498.70;326.17;;;;;;;;;;5041042;28;20025;-89
2021/05/08 08:04:16;;;;;;;501.55;324.17;;;;;;;;;;5048142;28;20116;-84
2021/05/08 08:06:42;;;;;;;501.83;334.80;;;;;;;;;;5044469;28;20415;-84
2021/05/08 08:09:08;;;;;;;493.63;328.35;;;;;;;;;;5048047;28;20117;-77
2021/05/08 08:11:34;;;;;;;528.35;345.10;;;;;;;;;;5026958;28;20033;-80
2021/05/08 08:14:00;;;;;;;538.13;348.88;;;;;;;;;;5031863;28;20032;-78
2021/05/08 08:16:26;;;;;;;526.13;337.60;;;;;;;;;;5034021;28;20037;-76
2021/05/08 08:18:52;;;;;;;518.92;333.75;;;;;;;;;;5036125;28;20120;-77
2021/05/08 08:21:18;;;;;;;538.30;352.60;;;;;;;;;;5047463;28;20562;-82
2021/05/08 08:23:44;;;;;;;529.72;338.95;;;;;;;;;;5044074;28;20128;-82
2021/05/08 08:26:10;;;;;;;519.13;324.83;;;;;;;;;;5012177;28;20404;-82
2021/05/08 08:28:36;;;;;;;548.95;352.05;;;;;;;;;;5033358;28;20050;-82
2021/05/08 08:31:02;;;;;;;511.95;325.63;;;;;;;;;;5041084;28;20518;-81
2021/05/08 08:33:28;;;;;;;520.22;332.17;;;;;;;;;;5057295;28;20636;-79
2021/05/08 08:35:54;;;;;;;532.15;348.30;;;;;;;;;;5049942;28;20037;-78
2021/05/08 08:38:44;;;;;;;514.50;332.35;;;;;;;;;;5032455;28;20683;-80
2021/05/08 08:41:10;;;;;;;506.75;321.80;;;;;;;;;;5049335;28;20017;-78
2021/05/08 08:43:37;;;;;;;514.15;333.00;;;;;;;;;;5025290;28;20440;-77
2021/05/08 08:46:03;;;;;;;722.05;469.83;;;;;;;;;;5043063;28;20017;-81
2021/05/08 08:48:29;;;;;;;515.42;338.77;;;;;;;;;;5027880;28;20446;-82
2021/05/08 08:50:55;;;;;;;518.80;339.10;;;;;;;;;;5033601;28;20029;-80
2021/05/08 08:53:21;;;;;;;519.35;338.05;;;;;;;;;;5033630;28;20025;-80
2021/05/08 08:55:55;;;;;;;727.63;486.00;;;;;;;;;;5031752;28;20040;-78
2021/05/08 08:58:29;;;;;;;539.50;352.65;;;;;;;;;;5030211;28;20048;-79
2021/05/08 09:00:59;;;;;;;510.85;335.83;;;;;;;;;;5048224;28;20040;-79
2021/05/08 09:03:25;;;;;;;521.17;339.65;;;;;;;;;;5038748;28;20368;-83
2021/05/08 09:05:51;;;;;;;559.70;379.75;;;;;;;;;;5034421;28;20119;-80
2021/05/08 09:08:19;;;;;;;712.97;482.15;;;;;;;;;;5021776;28;20025;-78
2021/05/08 09:10:45;;;;;;;605.97;395.83;;;;;;;;;;5048742;28;20029;-79
2021/05/08 09:13:16;;;;;;;639.95;423.98;;;;;;;;;;5036292;28;20519;-81
2021/05/08 09:15:43;;;;;;;697.55;467.83;;;;;;;;;;5034578;28;20141;-81
2021/05/08 09:18:11;;;;;;;665.90;437.23;;;;;;;;;;5035077;28;20234;-80
2021/05/08 09:20:40;;;;;;;553.33;364.70;;;;;;;;;;5052279;28;20036;-81
2021/05/08 09:23:16;;;;;;;530.20;349.50;;;;;;;;;;5051552;28;20067;-82
2021/05/08 09:25:55;;;;;;;532.72;360.50;;;;;;;;;;5051195;28;20435;-81
2021/05/08 09:28:26;;;;;;;506.65;339.20;;;;;;;;;;5045537;28;20524;-79
2021/05/08 09:30:53;;;;;;;493.05;338.05;;;;;;;;;;5031817;28;20030;-82
2021/05/08 09:33:23;;;;;;;486.35;336.75;;;;;;;;;;5038965;28;20022;-83
2021/05/08 09:36:03;;;;;;;498.20;341.85;;;;;;;;;;5024757;28;20570;-81
2021/05/08 09:38:30;;;;;;;502.17;341.05;;;;;;;;;;5029694;28;20360;-79
2021/05/08 09:40:56;;;;;;;510.88;354.15;;;;;;;;;;5024523;28;20040;-82
2021/05/08 09:43:28;;;;;;;500.67;345.83;;;;;;;;;;5039907;28;20033;-79
2021/05/08 09:45:54;;;;;;;509.02;357.75;;;;;;;;;;5022377;28;20478;-83
2021/05/08 09:48:26;;;;;;;499.35;347.15;;;;;;;;;;5033754;28;20351;-76
2021/05/08 09:50:52;;;;;;;507.45;350.75;;;;;;;;;;5053773;28;20489;-84
2021/05/08 09:53:28;;;;;;;485.58;338.42;;;;;;;;;;5062955;28;20538;-83
2021/05/08 09:55:54;;;;;;;506.08;351.55;;;;;;;;;;5037111;28;20033;-78
2021/05/08 09:58:22;;;;;;;528.33;363.42;;;;;;;;;;5054012;28;20032;-81
2021/05/08 10:00:48;;;;;;;535.10;369.50;;;;;;;;;;5054966;28;20021;-79
2021/05/08 10:03:45;;;;;;;500.52;345.63;;;;;;;;;;5038020;28;20033;-79
2021/05/08 10:06:12;;;;;;;501.98;346.17;;;;;;;;;;5048402;28;20052;-78
2021/05/08 10:08:37;;;;;;;493.75;335.38;;;;;;;;;;5041681;28;20111;-83
2021/05/08 10:11:04;;;;;;;477.55;330.35;;;;;;;;;;5049990;28;20586;-84
2021/05/08 10:13:32;;;;;;;481.90;328.92;;;;;;;;;;5055329;28;20156;-80
2021/05/08 10:15:59;;;;;;;474.33;328.60;;;;;;;;;;5036557;28;20067;-83
2021/05/08 10:18:25;;;;;;;470.95;330.10;;;;;;;;;;5055426;28;20025;-76
2021/05/08 10:20:52;;;;;;;502.83;352.75;;;;;;;;;;5051906;28;20404;-82
2021/05/08 10:23:18;;;;;;;492.35;347.77;;;;;;;;;;5054297;28;20097;-83
2021/05/08 10:25:45;;;;;;;480.00;339.85;;;;;;;;;;5023007;28;20444;-81
2021/05/08 10:28:11;;;;;;;485.92;340.02;;;;;;;;;;5031809;28;20469;-80
2021/05/08 10:30:39;;;;;;;492.67;345.98;;;;;;;;;;5054708;28;20025;-82
2021/05/08 10:33:08;;;;;;;479.60;337.80;;;;;;;;;;5049079;28;20087;-82
2021/05/08 10:35:44;;;;;;;474.30;336.35;;;;;;;;;;5018891;28;20084;-83
2021/05/08 10:38:18;;;;;;;470.73;335.30;;;;;;;;;;5029998;28;20024;-83
2021/05/08 10:40:52;;;;;;;472.23;338.63;;;;;;;;;;5031060;28;20033;-83
2021/05/08 10:43:37;;;;;;;465.10;332.73;;;;;;;;;;5038102;28;20028;-80
2021/05/08 10:46:03;;;;;;;465.08;325.65;;;;;;;;;;5030560;28;20018;-84
2021/05/08 10:48:29;;;;;;;462.98;331.88;;;;;;;;;;5023169;28;20045;-82
2021/05/08 10:50:58;;;;;;;462.73;333.45;;;;;;;;;;5032019;28;20029;-79
2021/05/08 10:53:35;;;;;;;465.48;328.35;;;;;;;;;;5018024;28;20027;-81
2021/05/08 10:56:01;;;;;;;466.05;326.92;;;;;;;;;;5040876;28;20039;-82
2021/05/08 10:58:29;;;;;;;458.00;328.48;;;;;;;;;;5047462;28;20035;-83
2021/05/08 11:00:57;;;;;;;459.70;328.38;;;;;;;;;;5032841;28;20040;-82
2021/05/08 11:03:27;;;;;;;481.90;342.77;;;;;;;;;;5031608;28;20094;-80
2021/05/08 11:05:57;;;;;;;468.90;335.17;;;;;;;;;;5049863;28;20703;-84
2021/05/08 11:08:29;;;;;;;472.25;333.05;;;;;;;;;;5031646;28;20040;-78
2021/05/08 11:10:56;;;;;;;460.67;326.08;;;;;;;;;;5031380;28;20474;-84
2021/05/08 11:13:24;;;;;;;461.23;325.48;;;;;;;;;;5047193;28;20037;-84
2021/05/08 11:16:02;;;;;;;462.15;326.75;;;;;;;;;;5049696;28;20497;-81
2021/05/08 11:21:01;;;;;;;463.90;323.90;;;;;;;;;;5050111;28;20044;-81
2021/05/08 11:23:27;;;;;;;471.48;328.83;;;;;;;;;;5049493;28;20025;-80
2021/05/08 11:25:53;;;;;;;479.50;326.92;;;;;;;;;;5050776;28;20028;-87
2021/05/08 11:28:19;;;;;;;463.08;314.58;;;;;;;;;;5052879;28;20029;-82
2021/05/08 11:30:56;;;;;;;461.75;328.38;;;;;;;;;;5053496;28;20032;-80
2021/05/08 11:33:24;;;;;;;458.20;314.20;;;;;;;;;;5038758;28;20029;-81
2021/05/08 11:36:03;;;;;;;466.95;321.90;;;;;;;;;;5045472;28;20029;-79
2021/05/08 11:38:29;;;;;;;472.92;318.92;;;;;;;;;;5035867;28;20500;-83
2021/05/08 11:40:56;;;;;;;474.95;310.65;;;;;;;;;;5035703;28;20037;-77
2021/05/08 11:43:25;;;;;;;487.20;317.67;;;;;;;;;;5036240;28;20056;-80
2021/05/08 11:46:04;;;;;;;498.00;324.90;;;;;;;;;;5053673;28;20122;-78
2021/05/08 11:48:30;;;;;;;465.15;306.48;;;;;;;;;;5049181;28;20103;-78
2021/05/08 11:50:56;;;;;;;481.40;311.20;;;;;;;;;;5034646;28;20036;-77
2021/05/08 11:53:22;;;;;;;474.08;316.35;;;;;;;;;;5032362;28;20083;-79
2021/05/08 11:55:48;;;;;;;492.52;324.15;;;;;;;;;;5048450;28;20037;-78
2021/05/08 11:58:25;;;;;;;498.20;330.67;;;;;;;;;;5031078;28;20029;-81
2021/05/08 12:00:53;;;;;;;533.13;346.83;;;;;;;;;;5044464;28;20028;-82
2021/05/08 12:03:19;;;;;;;494.70;328.30;;;;;;;;;;5027868;28;20665;-82
2021/05/08 12:05:46;;;;;;;468.55;315.05;;;;;;;;;;5034133;28;20086;-78
2021/05/08 12:08:16;;;;;;;463.48;315.67;;;;;;;;;;5021976;28;20056;-82
2021/05/08 12:10:43;;;;;;;465.58;308.40;;;;;;;;;;5052672;28;20035;-82
2021/05/08 12:13:09;;;;;;;470.17;317.63;;;;;;;;;;5051345;28;20030;-78
2021/05/08 12:15:36;;;;;;;465.98;310.42;;;;;;;;;;5048552;28;20036;-81
2021/05/08 12:18:03;;;;;;;462.38;307.42;;;;;;;;;;5032464;28;20032;-83
2021/05/08 12:20:35;;;;;;;469.35;313.40;;;;;;;;;;5033571;28;20033;-83
2021/05/08 12:23:04;;;;;;;467.90;311.52;;;;;;;;;;5034380;28;20033;-82
2021/05/08 12:25:30;;;;;;;467.85;310.90;;;;;;;;;;5031593;28;20032;-83
2021/05/08 12:28:14;;;;;;;477.30;319.45;;;;;;;;;;5031960;28;20087;-82
2021/05/08 12:30:40;;;;;;;810.88;346.13;;;;;;;;;;5033843;28;20500;-87
2021/05/08 12:33:14;;;;;;;468.20;302.33;;;;;;;;;;5052809;28;20032;-82
2021/05/08 12:35:40;;;;;;;466.80;299.38;;;;;;;;;;5032701;28;20056;-84
2021/05/08 12:38:13;;;;;;;466.00;306.77;;;;;;;;;;5035120;28;20707;-81
2021/05/08 12:40:39;;;;;;;466.92;297.50;;;;;;;;;;5052048;28;20052;-91
2021/05/08 12:43:05;;;;;;;466.15;302.85;;;;;;;;;;5034053;28;20388;-80
2021/05/08 12:45:31;;;;;;;459.70;297.25;;;;;;;;;;5034339;28;20023;-83
2021/05/08 12:47:57;;;;;;;456.58;299.85;;;;;;;;;;5051978;28;20052;-82
2021/05/08 12:50:31;;;;;;;454.60;298.42;;;;;;;;;;5034393;28;20017;-83
2021/05/08 12:52:58;;;;;;;456.83;294.30;;;;;;;;;;5022849;28;20021;-84
2021/05/08 12:55:25;;;;;;;456.17;294.88;;;;;;;;;;5032354;28;20032;-82
2021/05/08 12:57:51;;;;;;;459.58;297.13;;;;;;;;;;5027168;28;20473;-83
2021/05/08 13:00:18;;;;;;;461.33;296.48;;;;;;;;;;5034145;28;20033;-84
2021/05/08 13:02:45;;;;;;;469.55;299.20;;;;;;;;;;5032921;28;20029;-88
2021/05/08 13:05:12;;;;;;;470.27;300.80;;;;;;;;;;5031446;28;20044;-82
2021/05/08 13:07:39;;;;;;;466.20;302.02;;;;;;;;;;5035142;28;20013;-84
2021/05/08 13:10:21;;;;;;;461.65;295.15;;;;;;;;;;5034727;28;20154;-89
2021/05/08 13:12:48;;;;;;;463.25;298.92;;;;;;;;;;5035052;28;20021;-83
2021/05/08 13:15:20;;;;;;;461.38;295.58;;;;;;;;;;5033059;28;20033;-86
2021/05/08 13:17:46;;;;;;;453.20;289.60;;;;;;;;;;5032718;28;20029;-85
2021/05/08 13:20:13;;;;;;;452.88;289.08;;;;;;;;;;5034235;28;20025;-81
2021/05/08 13:22:42;;;;;;;456.17;293.02;;;;;;;;;;5034189;28;20420;-80
2021/05/08 13:25:08;;;;;;;460.83;299.80;;;;;;;;;;5033881;28;20029;-88
2021/05/08 13:27:34;;;;;;;458.30;295.42;;;;;;;;;;5028297;28;20119;-87
2021/05/08 13:30:00;;;;;;;468.15;298.98;;;;;;;;;;5017469;28;20114;-82
2021/05/08 13:32:26;;;;;;;467.10;305.75;;;;;;;;;;5024958;28;20033;-81
2021/05/08 13:34:55;;;;;;;462.92;298.50;;;;;;;;;;5033785;28;20654;-80
2021/05/08 13:37:21;;;;;;;463.58;298.58;;;;;;;;;;5030580;28;20115;-80
2021/05/08 13:39:47;;;;;;;461.50;293.75;;;;;;;;;;5021448;28;20034;-85
2021/05/08 13:42:14;;;;;;;459.27;300.50;;;;;;;;;;5042611;28;20094;-85
2021/05/08 13:44:40;;;;;;;455.60;294.48;;;;;;;;;;5026558;28;20021;-84
2021/05/08 13:47:10;;;;;;;464.85;298.25;;;;;;;;;;5033823;28;20094;-90
2021/05/08 13:49:36;;;;;;;482.35;310.70;;;;;;;;;;5034728;28;20048;-82
2021/05/08 13:52:02;;;;;;;475.38;301.58;;;;;;;;;;5034043;28;20055;-88
2021/05/08 13:54:28;;;;;;;462.98;297.15;;;;;;;;;;5029090;28;20030;-84